sensor_id;sensor_type;location;lat;lon;timestamp;pressure;altitude;pressure_sealevel;temperature;humidity
19777;BME280;10047;42.490;26.012;2023-02-01T00:01:23;100322.09;;;2.48;100.00
19777;BME280;10047;42.490;26.012;2023-02-01T00:03:49;100319.72;;;2.60;100.00
19777;BME280;10047;42.490;26.012;2023-02-01T00:06:14;100401.31;;;3.04;100.00
19777;BME280;10047;42.490;26.012;2023-02-01T00:08:39;100385.50;;;3.17;100.00
19777;BME280;10047;42.490;26.012;2023-02-01T00:11:08;100313.09;;;2.67;100.00
19777;BME280;10047;42.490;26.012;2023-02-01T00:13:35;100299.66;;;2.61;100.00
19777;BME280;10047;42.490;26.012;2023-02-01T00:16:11;100382.19;;;3.21;100.00
19777;BME280;10047;42.490;26.012;2023-02-01T00:18:39;100296.34;;;2.65;100.00
19777;BME280;10047;42.490;26.012;2023-02-01T00:21:05;100386.38;;;3.21;100.00
19777;BME280;10047;42.490;26.012;2023-02-01T00:23:35;100293.88;;;2.69;100.00
19777;BME280;10047;42.490;26.012;2023-02-01T00:26:02;100390.56;;;3.25;100.00
19777;BME280;10047;42.490;26.012;2023-02-01T00:28:28;100377.16;;;3.18;100.00
19777;BME280;10047;42.490;26.012;2023-02-01T00:31:00;100377.19;;;3.24;100.00
19777;BME280;10047;42.490;26.012;2023-02-01T00:33:27;100281.34;;;2.69;100.00
19777;BME280;10047;42.490;26.012;2023-02-01T00:36:01;100357.88;;;3.17;100.00
19777;BME280;10047;42.490;26.012;2023-02-01T00:38:28;100370.31;;;3.05;100.00
19777;BME280;10047;42.490;26.012;2023-02-01T00:40:54;100391.41;;;3.24;100.00
19777;BME280;10047;42.490;26.012;2023-02-01T00:43:20;100261.09;;;2.50;100.00
19777;BME280;10047;42.490;26.012;2023-02-01T00:46:02;100376.25;;;3.09;100.00
19777;BME280;10047;42.490;26.012;2023-02-01T00:48:28;100205.63;;;2.17;100.00
19777;BME280;10047;42.490;26.012;2023-02-01T00:50:53;100375.50;;;3.25;100.00
19777;BME280;10047;42.490;26.012;2023-02-01T00:53:19;100272.00;;;2.52;100.00
19777;BME280;10047;42.490;26.012;2023-02-01T00:55:46;100377.09;;;3.12;100.00
19777;BME280;10047;42.490;26.012;2023-02-01T00:58:12;100352.44;;;2.69;100.00
19777;BME280;10047;42.490;26.012;2023-02-01T01:00:37;100182.91;;;1.24;100.00
19777;BME280;10047;42.490;26.012;2023-02-01T01:03:03;100375.72;;;2.56;100.00
19777;BME280;10047;42.490;26.012;2023-02-01T01:05:46;100293.94;;;1.92;100.00
19777;BME280;10047;42.490;26.012;2023-02-01T01:08:12;100338.31;;;2.01;100.00
19777;BME280;10047;42.490;26.012;2023-02-01T01:10:39;100291.41;;;1.91;100.00
19777;BME280;10047;42.490;26.012;2023-02-01T01:13:04;100378.00;;;2.35;100.00
19777;BME280;10047;42.490;26.012;2023-02-01T01:15:30;100381.31;;;2.32;100.00
19777;BME280;10047;42.490;26.012;2023-02-01T01:17:56;100273.06;;;1.95;100.00
19777;BME280;10047;42.490;26.012;2023-02-01T01:20:21;100361.31;;;2.38;100.00
19777;BME280;10047;42.490;26.012;2023-02-01T01:22:47;100350.28;;;2.24;100.00
19777;BME280;10047;42.490;26.012;2023-02-01T01:25:13;100374.47;;;2.18;100.00
19777;BME280;10047;42.490;26.012;2023-02-01T01:27:39;100349.50;;;2.28;100.00
19777;BME280;10047;42.490;26.012;2023-02-01T01:30:05;100354.56;;;2.33;100.00
19777;BME280;10047;42.490;26.012;2023-02-01T01:32:31;100358.00;;;2.41;100.00
19777;BME280;10047;42.490;26.012;2023-02-01T01:34:56;100269.78;;;1.99;100.00
19777;BME280;10047;42.490;26.012;2023-02-01T01:37:21;100268.91;;;1.98;100.00
19777;BME280;10047;42.490;26.012;2023-02-01T01:39:47;100313.53;;;2.28;100.00
19777;BME280;10047;42.490;26.012;2023-02-01T01:42:12;100264.81;;;2.05;100.00
19777;BME280;10047;42.490;26.012;2023-02-01T01:45:38;100367.44;;;2.63;100.00
19777;BME280;10047;42.490;26.012;2023-02-01T01:47:51;100351.34;;;2.46;100.00
19777;BME280;10047;42.490;26.012;2023-02-01T01:50:21;100251.28;;;1.88;100.00
19777;BME280;10047;42.490;26.012;2023-02-01T01:52:50;100343.81;;;2.46;100.00
19777;BME280;10047;42.490;26.012;2023-02-01T01:55:18;100366.47;;;2.52;100.00
19777;BME280;10047;42.490;26.012;2023-02-01T01:57:50;100348.91;;;2.50;100.00
19777;BME280;10047;42.490;26.012;2023-02-01T02:00:19;100344.69;;;2.48;100.00
19777;BME280;10047;42.490;26.012;2023-02-01T02:02:53;100243.00;;;1.95;100.00
19777;BME280;10047;42.490;26.012;2023-02-01T02:05:20;100238.09;;;2.07;100.00
19777;BME280;10047;42.490;26.012;2023-02-01T02:07:49;100360.16;;;2.89;100.00
19777;BME280;10047;42.490;26.012;2023-02-01T02:10:16;100358.63;;;3.06;100.00
19777;BME280;10047;42.490;26.012;2023-02-01T02:12:44;100357.91;;;3.22;100.00
19777;BME280;10047;42.490;26.012;2023-02-01T02:15:13;100345.16;;;2.98;100.00
19777;BME280;10047;42.490;26.012;2023-02-01T02:39:57;100363.09;;;2.48;100.00
19777;BME280;10047;42.490;26.012;2023-02-01T02:42:31;100373.13;;;2.48;100.00
19777;BME280;10047;42.490;26.012;2023-02-01T02:46:01;100364.00;;;2.55;100.00
19777;BME280;10047;42.490;26.012;2023-02-01T02:51:14;100375.56;;;2.44;100.00
19777;BME280;10047;42.490;26.012;2023-02-01T02:54:10;100277.16;;;1.87;100.00
19777;BME280;10047;42.490;26.012;2023-02-01T02:56:56;100368.13;;;2.50;100.00
19777;BME280;10047;42.490;26.012;2023-02-01T02:59:43;100389.19;;;2.64;100.00
19777;BME280;10047;42.490;26.012;2023-02-01T03:02:29;100306.56;;;2.00;100.00
19777;BME280;10047;42.490;26.012;2023-02-01T03:05:13;100385.72;;;2.51;100.00
19777;BME280;10047;42.490;26.012;2023-02-01T03:13:54;100396.50;;;2.46;100.00
19777;BME280;10047;42.490;26.012;2023-02-01T03:16:39;100399.28;;;2.70;100.00
19777;BME280;10047;42.490;26.012;2023-02-01T03:19:10;100389.84;;;2.46;100.00
19777;BME280;10047;42.490;26.012;2023-02-01T03:21:42;100414.19;;;2.56;100.00
19777;BME280;10047;42.490;26.012;2023-02-01T03:24:21;100405.88;;;2.59;100.00
19777;BME280;10047;42.490;26.012;2023-02-01T03:26:53;100285.56;;;1.92;100.00
19777;BME280;10047;42.490;26.012;2023-02-01T03:29:29;100278.88;;;1.91;100.00
19777;BME280;10047;42.490;26.012;2023-02-01T03:31:55;100293.91;;;1.91;100.00
19777;BME280;10047;42.490;26.012;2023-02-01T03:34:21;100303.13;;;1.95;100.00
19777;BME280;10047;42.490;26.012;2023-02-01T03:37:09;100322.31;;;1.91;100.00
19777;BME280;10047;42.490;26.012;2023-02-01T03:39:48;100404.88;;;2.43;100.00
19777;BME280;10047;42.490;26.012;2023-02-01T03:42:28;100389.59;;;2.25;100.00
19777;BME280;10047;42.490;26.012;2023-02-01T03:45:20;100395.94;;;2.70;100.00
19777;BME280;10047;42.490;26.012;2023-02-01T03:47:50;100297.00;;;1.70;100.00
19777;BME280;10047;42.490;26.012;2023-02-01T03:50:22;100390.63;;;2.44;100.00
19777;BME280;10047;42.490;26.012;2023-02-01T03:53:05;100389.97;;;2.61;100.00
19777;BME280;10047;42.490;26.012;2023-02-01T03:55:32;100400.88;;;2.63;100.00
19777;BME280;10047;42.490;26.012;2023-02-01T03:58:18;100410.97;;;2.67;100.00
19777;BME280;10047;42.490;26.012;2023-02-01T04:00:49;100229.38;;;1.73;100.00
19777;BME280;10047;42.490;26.012;2023-02-01T04:03:15;100177.28;;;1.43;100.00
19777;BME280;10047;42.490;26.012;2023-02-01T04:05:40;100327.72;;;2.26;100.00
19777;BME280;10047;42.490;26.012;2023-02-01T04:08:06;100321.03;;;2.22;100.00
19777;BME280;10047;42.490;26.012;2023-02-01T04:10:31;100412.63;;;2.67;100.00
19777;BME280;10047;42.490;26.012;2023-02-01T04:12:57;100313.09;;;1.89;100.00
19777;BME280;10047;42.490;26.012;2023-02-01T04:15:22;100417.47;;;2.51;100.00
19777;BME280;10047;42.490;26.012;2023-02-01T04:17:49;100411.63;;;2.49;100.00
19777;BME280;10047;42.490;26.012;2023-02-01T04:20:14;100147.47;;;0.97;100.00
19777;BME280;10047;42.490;26.012;2023-02-01T04:22:40;100310.06;;;2.14;100.00
19777;BME280;10047;42.490;26.012;2023-02-01T04:25:06;100322.53;;;2.09;100.00
19777;BME280;10047;42.490;26.012;2023-02-01T04:27:31;100314.97;;;2.05;100.00
19777;BME280;10047;42.490;26.012;2023-02-01T04:29:57;100249.44;;;1.74;100.00
19777;BME280;10047;42.490;26.012;2023-02-01T04:32:22;100377.28;;;2.43;100.00
19777;BME280;10047;42.490;26.012;2023-02-01T04:34:48;100303.22;;;5.09;100.00
19777;BME280;10047;42.490;26.012;2023-02-01T04:37:13;100393.28;;;2.54;100.00
19777;BME280;10047;42.490;26.012;2023-02-01T04:39:39;100415.69;;;2.41;100.00
19777;BME280;10047;42.490;26.012;2023-02-01T04:42:04;100410.66;;;2.39;100.00
19777;BME280;10047;42.490;26.012;2023-02-01T04:44:30;100322.97;;;2.50;100.00
19777;BME280;10047;42.490;26.012;2023-02-01T04:46:55;100417.97;;;2.21;100.00
19777;BME280;10047;42.490;26.012;2023-02-01T04:49:21;100408.84;;;2.28;100.00
19777;BME280;10047;42.490;26.012;2023-02-01T04:51:47;100322.16;;;1.77;100.00
19777;BME280;10047;42.490;26.012;2023-02-01T04:54:13;100409.50;;;2.15;100.00
19777;BME280;10047;42.490;26.012;2023-02-01T04:56:38;100315.22;;;1.58;100.00
19777;BME280;10047;42.490;26.012;2023-02-01T04:59:04;100423.00;;;2.26;100.00
19777;BME280;10047;42.490;26.012;2023-02-01T05:01:30;100326.41;;;1.83;100.00
19777;BME280;10047;42.490;26.012;2023-02-01T05:03:56;100412.28;;;2.36;100.00
19777;BME280;10047;42.490;26.012;2023-02-01T05:06:22;100429.88;;;2.39;100.00
19777;BME280;10047;42.490;26.012;2023-02-01T05:08:47;100372.06;;;2.27;100.00
19777;BME280;10047;42.490;26.012;2023-02-01T05:11:13;100429.16;;;2.49;100.00
19777;BME280;10047;42.490;26.012;2023-02-01T05:14:00;100424.53;;;2.13;100.00
19777;BME280;10047;42.490;26.012;2023-02-01T05:16:26;100433.47;;;1.95;100.00
19777;BME280;10047;42.490;26.012;2023-02-01T05:18:52;100426.63;;;1.82;100.00
19777;BME280;10047;42.490;26.012;2023-02-01T05:21:17;100436.94;;;2.04;100.00
19777;BME280;10047;42.490;26.012;2023-02-01T05:23:43;100452.81;;;2.02;100.00
19777;BME280;10047;42.490;26.012;2023-02-01T05:26:28;100374.50;;;1.59;100.00
19777;BME280;10047;42.490;26.012;2023-02-01T05:28:53;100348.53;;;1.53;100.00
19777;BME280;10047;42.490;26.012;2023-02-01T05:31:18;100376.94;;;1.53;100.00
19777;BME280;10047;42.490;26.012;2023-02-01T05:33:44;100265.53;;;0.70;100.00
19777;BME280;10047;42.490;26.012;2023-02-01T05:36:09;100456.88;;;1.95;100.00
19777;BME280;10047;42.490;26.012;2023-02-01T05:38:35;100454.94;;;1.77;100.00
19777;BME280;10047;42.490;26.012;2023-02-01T05:41:00;100449.25;;;1.86;100.00
19777;BME280;10047;42.490;26.012;2023-02-01T05:43:25;100449.06;;;1.74;100.00
19777;BME280;10047;42.490;26.012;2023-02-01T05:45:52;100370.78;;;3.66;100.00
19777;BME280;10047;42.490;26.012;2023-02-01T05:48:17;100454.69;;;2.88;100.00
19777;BME280;10047;42.490;26.012;2023-02-01T05:50:43;100443.13;;;2.29;100.00
19777;BME280;10047;42.490;26.012;2023-02-01T05:53:08;100358.34;;;1.98;100.00
19777;BME280;10047;42.490;26.012;2023-02-01T05:55:34;100458.34;;;2.42;100.00
19777;BME280;10047;42.490;26.012;2023-02-01T05:57:59;100462.72;;;2.57;100.00
19777;BME280;10047;42.490;26.012;2023-02-01T06:00:25;100456.13;;;2.67;100.00
19777;BME280;10047;42.490;26.012;2023-02-01T06:02:50;100374.72;;;2.40;100.00
19777;BME280;10047;42.490;26.012;2023-02-01T06:05:16;100473.72;;;5.14;100.00
19777;BME280;10047;42.490;26.012;2023-02-01T06:07:41;100350.91;;;6.13;100.00
19777;BME280;10047;42.490;26.012;2023-02-01T06:10:08;100451.06;;;5.64;100.00
19777;BME280;10047;42.490;26.012;2023-02-01T06:12:33;100469.56;;;5.98;100.00
19777;BME280;10047;42.490;26.012;2023-02-01T06:14:59;100448.31;;;7.80;100.00
19777;BME280;10047;42.490;26.012;2023-02-01T06:17:24;100455.47;;;7.32;100.00
19777;BME280;10047;42.490;26.012;2023-02-01T06:19:50;100459.09;;;8.77;100.00
19777;BME280;10047;42.490;26.012;2023-02-01T06:22:16;100470.16;;;6.77;100.00
19777;BME280;10047;42.490;26.012;2023-02-01T06:24:41;100450.91;;;4.57;100.00
19777;BME280;10047;42.490;26.012;2023-02-01T06:27:07;100468.72;;;3.57;100.00
19777;BME280;10047;42.490;26.012;2023-02-01T06:29:33;100268.50;;;2.40;100.00
19777;BME280;10047;42.490;26.012;2023-02-01T06:31:58;100331.75;;;2.97;100.00
19777;BME280;10047;42.490;26.012;2023-02-01T06:34:24;100470.47;;;3.67;100.00
19777;BME280;10047;42.490;26.012;2023-02-01T06:36:49;100360.22;;;2.98;100.00
19777;BME280;10047;42.490;26.012;2023-02-01T06:39:15;100476.88;;;3.28;100.00
19777;BME280;10047;42.490;26.012;2023-02-01T06:41:42;100460.94;;;4.51;100.00
19777;BME280;10047;42.490;26.012;2023-02-01T06:44:08;100469.53;;;5.96;100.00
19777;BME280;10047;42.490;26.012;2023-02-01T06:46:33;100315.50;;;8.74;100.00
19777;BME280;10047;42.490;26.012;2023-02-01T06:48:59;100290.56;;;7.83;100.00
19777;BME280;10047;42.490;26.012;2023-02-01T06:51:26;100359.63;;;7.05;100.00
19777;BME280;10047;42.490;26.012;2023-02-01T06:53:52;100447.84;;;10.01;100.00
19777;BME280;10047;42.490;26.012;2023-02-01T06:56:18;100288.75;;;10.75;100.00
19777;BME280;10047;42.490;26.012;2023-02-01T06:58:43;100347.72;;;13.30;100.00
19777;BME280;10047;42.490;26.012;2023-02-01T07:01:10;100344.72;;;10.73;100.00
19777;BME280;10047;42.490;26.012;2023-02-01T07:03:36;100440.13;;;5.92;100.00
19777;BME280;10047;42.490;26.012;2023-02-01T07:06:02;100364.53;;;5.18;100.00
19777;BME280;10047;42.490;26.012;2023-02-01T07:08:28;100305.88;;;6.84;100.00
19777;BME280;10047;42.490;26.012;2023-02-01T07:10:54;100441.91;;;10.86;100.00
19777;BME280;10047;42.490;26.012;2023-02-01T07:13:19;100362.16;;;10.10;100.00
19777;BME280;10047;42.490;26.012;2023-02-01T07:15:45;100343.03;;;9.47;100.00
19777;BME280;10047;42.490;26.012;2023-02-01T07:18:15;100334.13;;;8.09;100.00
19777;BME280;10047;42.490;26.012;2023-02-01T07:20:41;100342.81;;;6.97;100.00
19777;BME280;10047;42.490;26.012;2023-02-01T07:23:09;100354.34;;;5.77;100.00
19777;BME280;10047;42.490;26.012;2023-02-01T07:25:35;100366.97;;;5.86;100.00
19777;BME280;10047;42.490;26.012;2023-02-01T07:28:00;100436.19;;;7.17;100.00
19777;BME280;10047;42.490;26.012;2023-02-01T07:30:26;100361.88;;;6.03;100.00
19777;BME280;10047;42.490;26.012;2023-02-01T07:32:51;100278.88;;;4.76;100.00
19777;BME280;10047;42.490;26.012;2023-02-01T07:35:17;100448.53;;;5.61;100.00
19777;BME280;10047;42.490;26.012;2023-02-01T07:37:42;100372.03;;;4.85;100.00
19777;BME280;10047;42.490;26.012;2023-02-01T07:40:08;100422.50;;;5.43;100.00
19777;BME280;10047;42.490;26.012;2023-02-01T07:42:34;100284.75;;;4.72;100.00
19777;BME280;10047;42.490;26.012;2023-02-01T07:45:03;100453.50;;;6.25;100.00
19777;BME280;10047;42.490;26.012;2023-02-01T07:47:28;100448.47;;;6.17;100.00
19777;BME280;10047;42.490;26.012;2023-02-01T07:49:54;100378.75;;;5.71;100.00
19777;BME280;10047;42.490;26.012;2023-02-01T07:52:19;100463.66;;;5.55;100.00
19777;BME280;10047;42.490;26.012;2023-02-01T07:54:45;100382.16;;;5.12;100.00
19777;BME280;10047;42.490;26.012;2023-02-01T07:57:10;100440.13;;;5.68;100.00
19777;BME280;10047;42.490;26.012;2023-02-01T07:59:37;100399.72;;;4.66;100.00
19777;BME280;10047;42.490;26.012;2023-02-01T08:02:22;100363.69;;;5.25;100.00
19777;BME280;10047;42.490;26.012;2023-02-01T08:04:47;100314.75;;;3.91;100.00
19777;BME280;10047;42.490;26.012;2023-02-01T08:07:13;100377.13;;;5.34;100.00
19777;BME280;10047;42.490;26.012;2023-02-01T08:09:38;100382.16;;;5.02;100.00
19777;BME280;10047;42.490;26.012;2023-02-01T08:12:04;100384.69;;;5.37;100.00
19777;BME280;10047;42.490;26.012;2023-02-01T08:14:29;100472.91;;;5.46;100.00
19777;BME280;10047;42.490;26.012;2023-02-01T08:16:54;100402.31;;;5.34;100.00
19777;BME280;10047;42.490;26.012;2023-02-01T08:19:20;100389.72;;;5.05;100.00
19777;BME280;10047;42.490;26.012;2023-02-01T08:21:46;100322.53;;;4.90;100.00
19777;BME280;10047;42.490;26.012;2023-02-01T08:24:13;100425.00;;;5.59;100.00
19777;BME280;10047;42.490;26.012;2023-02-01T08:26:39;100428.38;;;5.55;100.00
19777;BME280;10047;42.490;26.012;2023-02-01T08:29:06;100409.78;;;6.21;100.00
19777;BME280;10047;42.490;26.012;2023-02-01T08:31:32;100423.22;;;6.28;100.00
19777;BME280;10047;42.490;26.012;2023-02-01T08:34:00;100445.94;;;6.23;100.00
19777;BME280;10047;42.490;26.012;2023-02-01T08:36:27;100490.44;;;6.59;100.00
19777;BME280;10047;42.490;26.012;2023-02-01T08:38:53;100476.88;;;6.72;100.00
19777;BME280;10047;42.490;26.012;2023-02-01T08:41:21;100387.13;;;5.80;100.00
19777;BME280;10047;42.490;26.012;2023-02-01T08:43:47;100472.06;;;5.96;100.00
19777;BME280;10047;42.490;26.012;2023-02-01T08:46:13;100392.25;;;5.44;100.00
19777;BME280;10047;42.490;26.012;2023-02-01T08:48:39;100368.69;;;5.51;100.00
19777;BME280;10047;42.490;26.012;2023-02-01T08:51:08;100408.13;;;6.06;100.00
19777;BME280;10047;42.490;26.012;2023-02-01T08:53:36;100489.69;;;6.25;100.00
19777;BME280;10047;42.490;26.012;2023-02-01T08:56:02;100466.16;;;6.11;100.00
19777;BME280;10047;42.490;26.012;2023-02-01T08:58:27;100424.16;;;5.86;100.00
19777;BME280;10047;42.490;26.012;2023-02-01T09:00:53;100409.03;;;5.72;100.00
19777;BME280;10047;42.490;26.012;2023-02-01T09:03:18;100462.75;;;6.33;100.00
19777;BME280;10047;42.490;26.012;2023-02-01T09:05:44;100325.03;;;5.11;100.00
19777;BME280;10047;42.490;26.012;2023-02-01T09:08:10;100483.00;;;6.13;100.00
19777;BME280;10047;42.490;26.012;2023-02-01T09:10:38;100433.41;;;5.84;100.00
19777;BME280;10047;42.490;26.012;2023-02-01T09:13:03;100457.75;;;6.15;100.00
19777;BME280;10047;42.490;26.012;2023-02-01T09:15:30;100372.03;;;5.55;100.00
19777;BME280;10047;42.490;26.012;2023-02-01T09:17:56;100441.81;;;6.04;100.00
19777;BME280;10047;42.490;26.012;2023-02-01T09:20:21;100306.56;;;4.70;100.00
19777;BME280;10047;42.490;26.012;2023-02-01T09:22:50;100370.41;;;5.14;100.00
19777;BME280;10047;42.490;26.012;2023-02-01T09:25:16;100350.25;;;5.08;100.00
19777;BME280;10047;42.490;26.012;2023-02-01T09:27:41;100408.19;;;5.51;100.00
19777;BME280;10047;42.490;26.012;2023-02-01T09:30:07;100363.69;;;5.00;100.00
19777;BME280;10047;42.490;26.012;2023-02-01T09:32:33;100363.69;;;5.25;100.00
19777;BME280;10047;42.490;26.012;2023-02-01T09:34:58;100351.94;;;5.00;100.00
19777;BME280;10047;42.490;26.012;2023-02-01T09:37:24;100358.66;;;5.12;100.00
19777;BME280;10047;42.490;26.012;2023-02-01T09:39:49;100455.25;;;5.47;100.00
19777;BME280;10047;42.490;26.012;2023-02-01T09:45:20;100449.38;;;5.59;100.00
19777;BME280;10047;42.490;26.012;2023-02-01T09:47:53;100327.59;;;4.96;100.00
19777;BME280;10047;42.490;26.012;2023-02-01T09:50:34;100447.69;;;5.67;100.00
19777;BME280;10047;42.490;26.012;2023-02-01T10:10:14;100447.69;;;5.73;100.00
19777;BME280;10047;42.490;26.012;2023-02-01T10:15:35;100426.66;;;5.80;100.00
19777;BME280;10047;42.490;26.012;2023-02-01T10:21:09;100439.25;;;6.02;100.00
19777;BME280;10047;42.490;26.012;2023-02-01T10:26:29;100414.00;;;6.07;100.00
19777;BME280;10047;42.490;26.012;2023-02-01T10:29:00;100424.06;;;6.22;100.00
19777;BME280;10047;42.490;26.012;2023-02-01T10:31:28;100406.47;;;5.99;100.00
19777;BME280;10047;42.490;26.012;2023-02-01T10:33:57;100390.50;;;5.99;100.00
19777;BME280;10047;42.490;26.012;2023-02-01T10:36:29;100297.25;;;5.60;100.00
19777;BME280;10047;42.490;26.012;2023-02-01T10:38:58;100400.47;;;6.34;100.00
19777;BME280;10047;42.490;26.012;2023-02-01T10:41:30;100302.25;;;5.69;100.00
19777;BME280;10047;42.490;26.012;2023-02-01T10:43:58;100330.78;;;5.90;100.00
19777;BME280;10047;42.490;26.012;2023-02-01T10:46:24;100299.69;;;7.19;100.00
19777;BME280;10047;42.490;26.012;2023-02-01T10:48:52;100316.94;;;6.68;100.00
19777;BME280;10047;42.490;26.012;2023-02-01T10:51:24;100280.78;;;6.63;100.00
19777;BME280;10047;42.490;26.012;2023-02-01T10:53:54;100352.25;;;6.79;100.00
19777;BME280;10047;42.490;26.012;2023-02-01T10:56:23;100287.56;;;6.55;100.00
19777;BME280;10047;42.490;26.012;2023-02-01T10:58:49;100345.47;;;6.82;100.00
19777;BME280;10047;42.490;26.012;2023-02-01T11:01:19;100261.66;;;6.28;100.00
19777;BME280;10047;42.490;26.012;2023-02-01T11:03:52;100358.94;;;6.84;100.00
19777;BME280;10047;42.490;26.012;2023-02-01T11:06:24;100349.66;;;6.83;100.00
19777;BME280;10047;42.490;26.012;2023-02-01T11:08:54;100327.75;;;6.85;100.00
19777;BME280;10047;42.490;26.012;2023-02-01T11:11:20;100310.19;;;7.63;100.00
19777;BME280;10047;42.490;26.012;2023-02-01T11:13:53;100350.97;;;7.30;100.00
19777;BME280;10047;42.490;26.012;2023-02-01T11:16:18;100332.66;;;7.07;100.00
19777;BME280;10047;42.490;26.012;2023-02-01T11:18:44;100326.56;;;7.26;100.00
19777;BME280;10047;42.490;26.012;2023-02-01T11:21:10;100322.13;;;7.52;100.00
19777;BME280;10047;42.490;26.012;2023-02-01T11:23:43;100207.84;;;7.17;100.00
19777;BME280;10047;42.490;26.012;2023-02-01T11:26:28;100321.59;;;7.97;100.00
19777;BME280;10047;42.490;26.012;2023-02-01T11:29:08;100231.00;;;7.55;100.00
19777;BME280;10047;42.490;26.012;2023-02-01T11:31:35;100318.38;;;7.86;100.00
19777;BME280;10047;42.490;26.012;2023-02-01T11:34:25;100320.16;;;7.75;100.00
19777;BME280;10047;42.490;26.012;2023-02-01T11:36:54;100287.38;;;7.66;100.00
19777;BME280;10047;42.490;26.012;2023-02-01T11:39:30;100310.47;;;7.39;100.00
19777;BME280;10047;42.490;26.012;2023-02-01T11:47:27;100290.66;;;7.75;100.00
19777;BME280;10047;42.490;26.012;2023-02-01T11:49:55;100203.66;;;7.14;100.00
19777;BME280;10047;42.490;26.012;2023-02-01T12:00:48;100278.03;;;6.90;100.00
19777;BME280;10047;42.490;26.012;2023-02-01T12:08:55;100237.66;;;6.84;100.00
19777;BME280;10047;42.490;26.012;2023-02-01T12:36:32;100273.50;;;7.21;100.00
19777;BME280;10047;42.490;26.012;2023-02-01T12:39:24;100156.31;;;6.46;100.00
19777;BME280;10047;42.490;26.012;2023-02-01T12:41:57;100166.50;;;6.37;100.00
19777;BME280;10047;42.490;26.012;2023-02-01T12:47:20;100180.44;;;6.77;100.00
19777;BME280;10047;42.490;26.012;2023-02-01T12:50:15;100238.88;;;7.29;100.00
19777;BME280;10047;42.490;26.012;2023-02-01T12:52:49;100219.88;;;6.92;100.00
19777;BME280;10047;42.490;26.012;2023-02-01T12:57:50;100238.94;;;7.25;100.00
19777;BME280;10047;42.490;26.012;2023-02-01T13:00:30;100243.19;;;7.20;100.00
19777;BME280;10047;42.490;26.012;2023-02-01T13:05:53;100132.47;;;6.74;100.00
19777;BME280;10047;42.490;26.012;2023-02-01T13:08:30;100139.97;;;6.82;100.00
19777;BME280;10047;42.490;26.012;2023-02-01T13:11:06;100166.03;;;6.87;100.00
19777;BME280;10047;42.490;26.012;2023-02-01T13:16:43;100141.47;;;6.99;100.00
19777;BME280;10047;42.490;26.012;2023-02-01T13:19:42;100138.91;;;7.04;100.00
19777;BME280;10047;42.490;26.012;2023-02-01T13:22:25;100218.34;;;7.56;100.00
19777;BME280;10047;42.490;26.012;2023-02-01T13:25:08;100153.00;;;7.23;100.00
19777;BME280;10047;42.490;26.012;2023-02-01T13:27:37;100130.22;;;7.23;100.00
19777;BME280;10047;42.490;26.012;2023-02-01T13:30:20;100140.88;;;7.49;100.00
19777;BME280;10047;42.490;26.012;2023-02-01T13:42:53;100126.66;;;7.99;100.00
19777;BME280;10047;42.490;26.012;2023-02-01T13:45:32;100134.63;;;8.31;100.00
19777;BME280;10047;42.490;26.012;2023-02-01T13:48:01;100222.03;;;8.57;100.00
19777;BME280;10047;42.490;26.012;2023-02-01T13:50:37;100209.56;;;8.42;100.00
19777;BME280;10047;42.490;26.012;2023-02-01T13:55:54;100218.44;;;8.13;100.00
19777;BME280;10047;42.490;26.012;2023-02-01T13:58:22;100142.19;;;7.74;100.00
19777;BME280;10047;42.490;26.012;2023-02-01T14:03:51;100151.94;;;8.02;100.00
19777;BME280;10047;42.490;26.012;2023-02-01T14:08:46;100083.31;;;7.66;100.00
19777;BME280;10047;42.490;26.012;2023-02-01T14:16:38;100133.34;;;8.57;100.00
19777;BME280;10047;42.490;26.012;2023-02-01T14:19:08;100205.22;;;9.01;100.00
19777;BME280;10047;42.490;26.012;2023-02-01T14:21:47;100131.59;;;8.61;100.00
19777;BME280;10047;42.490;26.012;2023-02-01T14:24:20;100222.25;;;8.93;100.00
19777;BME280;10047;42.490;26.012;2023-02-01T14:26:53;100064.31;;;8.45;100.00
19777;BME280;10047;42.490;26.012;2023-02-01T14:29:32;100207.91;;;9.77;100.00
19777;BME280;10047;42.490;26.012;2023-02-01T14:32:19;100197.16;;;9.66;100.00
19777;BME280;10047;42.490;26.012;2023-02-01T14:37:35;100197.69;;;9.40;100.00
19777;BME280;10047;42.490;26.012;2023-02-01T14:42:50;100098.38;;;8.74;100.00
19777;BME280;10047;42.490;26.012;2023-02-01T14:47:45;100190.53;;;10.71;100.00
19777;BME280;10047;42.490;26.012;2023-02-01T14:53:04;100175.41;;;11.87;100.00
19777;BME280;10047;42.490;26.012;2023-02-01T14:55:37;100170.91;;;11.95;100.00
19777;BME280;10047;42.490;26.012;2023-02-01T15:00:56;100127.06;;;9.21;100.00
19777;BME280;10047;42.490;26.012;2023-02-01T15:06:33;100204.44;;;8.96;100.00
19777;BME280;10047;42.490;26.012;2023-02-01T15:09:15;100136.34;;;8.29;100.00
19777;BME280;10047;42.490;26.012;2023-02-01T15:12:03;100202.06;;;8.36;100.00
19777;BME280;10047;42.490;26.012;2023-02-01T15:14:35;100213.75;;;8.46;100.00
19777;BME280;10047;42.490;26.012;2023-02-01T15:17:02;100168.13;;;7.92;100.00
19777;BME280;10047;42.490;26.012;2023-02-01T15:19:29;100188.59;;;8.36;100.00
19777;BME280;10047;42.490;26.012;2023-02-01T15:21:57;100258.16;;;8.09;100.00
19777;BME280;10047;42.490;26.012;2023-02-01T15:24:24;100273.28;;;8.14;100.00
19777;BME280;10047;42.490;26.012;2023-02-01T15:26:51;100193.19;;;7.46;100.00
19777;BME280;10047;42.490;26.012;2023-02-01T15:29:18;100291.22;;;7.97;100.00